Data for 01/07/2009

Time Sea-Level Adjusted Pressure Absolute Pressure Temperature Relative Humidity Dew Point   
(mb) (inHg) (mb) (inHg) (C) (F) (%) (C) (F)
00:05 1004 29.65 834 24.63 1.8 35.3 65 -4 24.8
00:10 1004 29.65 834 24.63 1.8 35.2 65 -4.1 24.7
00:15 1004 29.65 834 24.63 2 35.5 66 -3.8 25.1
00:20 1004 29.65 834 24.63 2 35.6 64 -4 24.7
00:25 1004 29.65 834 24.63 2.1 35.7 65 -3.9 25.1
00:30 1004 29.65 834 24.63 2.2 35.9 64 -3.9 24.9
00:35 1004 29.65 834 24.63 2.3 36.1 64 -3.8 25.2
00:40 1004 29.65 834 24.63 2.3 36.2 64 -3.7 25.3
00:45 1004 29.65 834 24.63 2.4 36.3 64 -3.8 25.2
00:50 1004 29.65 834 24.63 2.5 36.6 64 -3.7 25.4
00:55 1004 29.65 834 24.63 2.5 36.5 64 -3.6 25.5
01:00 1004 29.65 834 24.63 2.6 36.6 64 -3.6 25.5
01:05 1004 29.65 833 24.6 2.6 36.8 63 -3.7 25.3
01:10 1004 29.65 833 24.6 2.8 37 63 -3.5 25.7
01:15 1004 29.65 834 24.63 2.7 36.9 63 -3.7 25.4
01:20 1004 29.65 834 24.63 2.9 37.2 62 -3.7 25.4
01:25 1004 29.65 834 24.63 3.1 37.5 62 -3.5 25.7
01:30 1004 29.65 834 24.63 3 37.3 63 -3.4 25.9
01:35 1004 29.65 833 24.6 2.9 37.2 63 -3.5 25.8
01:40 1004 29.65 833 24.6 2.7 36.9 64 -3.3 26
01:45 1004 29.65 833 24.6 2.5 36.5 65 -3.4 25.8
01:50 1004 29.65 834 24.63 2.5 36.6 64 -3.5 25.6
01:55 1004 29.65 834 24.63 2.7 36.9 64 -3.5 25.8
02:00 1004 29.65 833 24.6 2.8 37.1 65 -3.1 26.3
02:05 1004 29.65 834 24.63 2.9 37.1 63 -3.5 25.8
02:10 1004 29.65 834 24.63 3 37.4 63 -3.5 25.8
02:15 1004 29.65 834 24.63 3.2 37.7 62 -3.4 25.9
02:20 1004 29.65 834 24.63 3.3 37.9 61 -3.4 25.8
02:25 1005 29.68 834 24.63 3.4 38.1 61 -3.3 26
02:30 1005 29.68 834 24.63 3.5 38.2 61 -3.3 26.1
02:35 1004 29.65 834 24.63 3.6 38.4 62 -3.1 26.4
02:40 1004 29.65 834 24.63 3.6 38.4 61 -3.2 26.3
02:45 1004 29.65 834 24.63 3.9 38.9 61 -3.1 26.5
02:50 1005 29.68 834 24.63 4.1 39.5 60 -3 26.5
02:55 1005 29.68 834 24.63 4.4 39.8 59 -3 26.5
03:00 1005 29.68 834 24.63 4.6 40.2 58 -2.9 26.8
03:05 1005 29.68 834 24.63 4.5 40 58 -3 26.6
03:10 1005 29.68 834 24.63 4.4 39.9 59 -2.9 26.8
03:15 1005 29.68 834 24.63 4.3 39.8 60 -2.8 26.9
03:20 1005 29.68 834 24.63 4.4 40 59 -2.9 26.7
03:25 1005 29.68 834 24.63 4.6 40.2 59 -2.7 27.1
03:30 1005 29.68 835 24.66 4.5 40.2 59 -2.7 27.1
03:35 1005 29.68 835 24.66 4.4 39.9 60 -2.6 27.2
03:40 1005 29.68 834 24.63 4.4 39.9 60 -2.6 27.3
03:45 1005 29.68 834 24.63 4.4 39.9 60 -2.7 27.2
03:50 1005 29.68 834 24.63 4.6 40.3 58 -2.9 26.8
03:55 1005 29.68 834 24.63 4.9 40.8 58 -2.6 27.4
04:00 1005 29.68 834 24.63 5 41.1 58 -2.6 27.3
04:05 1005 29.68 834 24.63 5.2 41.4 57 -2.6 27.3
04:10 1005 29.68 834 24.63 5.3 41.6 56 -2.6 27.3
04:15 1005 29.68 834 24.63 5.6 42 56 -2.5 27.5
04:20 1005 29.68 834 24.63 5.6 42.1 56 -2.4 27.6
04:25 1005 29.68 834 24.63 5.7 42.2 56 -2.4 27.7
04:30 1005 29.68 834 24.63 5.6 42.1 56 -2.4 27.7
04:35 1005 29.68 834 24.63 5.6 42.1 57 -2.3 27.8
04:40 1005 29.68 834 24.63 5.4 41.8 58 -2.1 28.3
04:45 1005 29.68 835 24.66 5.1 41.1 59 -2.3 27.9
04:50 1006 29.71 835 24.66 5 41 58 -2.6 27.4
04:55 1006 29.71 835 24.66 5.1 41.2 58 -2.4 27.6
05:00 1005 29.68 835 24.66 5.1 41.1 59 -2.4 27.8
05:05 1005 29.68 835 24.66 5.1 41.1 59 -2.3 27.8
05:10 1006 29.71 835 24.66 4.9 40.8 61 -2.1 28.3
05:15 1006 29.71 835 24.66 4.7 40.4 62 -2 28.4
05:20 1006 29.71 835 24.66 4.6 40.3 63 -1.9 28.6
05:25 1006 29.71 835 24.66 4.5 40.1 63 -2 28.5
05:30 1005 29.68 835 24.66 4.5 40.1 63 -1.9 28.6
05:35 1006 29.71 835 24.66 4.7 40.5 60 -2.4 27.6
05:40 1006 29.71 835 24.66 5.1 41.1 59 -2.3 27.9
05:45 1006 29.71 835 24.66 5.2 41.4 58 -2.5 27.6
05:50 1006 29.71 835 24.66 5.6 42.1 57 -2.2 28
05:55 1006 29.71 835 24.66 5.6 42.1 57 -2.3 27.8
06:00 1006 29.71 835 24.66 5.7 42.3 58 -2 28.4
06:05 1006 29.71 835 24.66 5.6 42.1 58 -2 28.3
06:10 1006 29.71 835 24.66 5.7 42.2 57 -2.1 28.2
06:15 1006 29.71 835 24.66 5.8 42.4 56 -2.2 28
06:20 1006 29.71 835 24.66 5.9 42.7 56 -2.2 28.1
06:25 1006 29.71 835 24.66 5.9 42.7 57 -2 28.4
06:30 1006 29.71 835 24.66 5.8 42.4 57 -2 28.4
06:35 1006 29.71 835 24.66 5.8 42.4 58 -2 28.5
06:40 1006 29.71 835 24.66 5.7 42.2 58 -1.9 28.6
06:45 1006 29.71 835 24.66 5.4 41.7 59 -1.8 28.7
06:50 1006 29.71 836 24.69 5.5 41.8 58 -2.1 28.3
06:55 1006 29.71 836 24.69 5.5 41.9 59 -1.8 28.7
07:00 1006 29.71 836 24.69 5.4 41.8 59 -2 28.4
07:05 1006 29.71 835 24.66 5.5 41.9 59 -1.9 28.5
07:10 1006 29.71 836 24.69 5.5 42 59 -1.9 28.5
07:15 1006 29.71 835 24.66 5.5 42 58 -2.1 28.3
07:20 1006 29.71 835 24.66 5.6 42 58 -1.9 28.5
07:25 1006 29.71 835 24.66 5.6 42.1 58 -1.9 28.5
07:30 1006 29.71 836 24.69 5.6 42.1 58 -2.1 28.2
07:35 1006 29.71 836 24.69 5.6 42.2 57 -2.1 28.2
07:40 1006 29.71 836 24.69 5.7 42.3 57 -2.2 28.1
07:45 1007 29.74 836 24.69 5.8 42.4 57 -2 28.4
07:50 1007 29.74 836 24.69 5.6 42.1 59 -1.8 28.8
07:55 1007 29.74 836 24.69 5.2 41.3 61 -1.7 28.9
08:00 1007 29.74 836 24.69 5.1 41.1 61 -1.9 28.5
08:05 1007 29.74 836 24.69 5.2 41.3 60 -2 28.4
08:10 1007 29.74 836 24.69 5.3 41.6 57 -2.5 27.5
08:15 1007 29.74 836 24.69 6 42.7 54 -2.6 27.4
08:20 1007 29.74 836 24.69 6.3 43.4 54 -2.3 27.8
08:25 1007 29.74 836 24.69 6.1 43.1 55 -2.1 28.2
08:30 1007 29.74 836 24.69 6 42.8 56 -2.2 28
08:35 1007 29.74 836 24.69 6.1 43 53 -2.7 27.1
08:40 1007 29.74 836 24.69 6.3 43.4 54 -2.3 27.9
08:45 1007 29.74 836 24.69 6.3 43.3 52 -2.8 27
08:50 1007 29.74 836 24.69 6.7 44 52 -2.5 27.5
08:55 1007 29.74 836 24.69 6.7 44.1 52 -2.4 27.7
09:00 1007 29.74 836 24.69 6.7 44 53 -2.3 27.8
09:05 1007 29.74 836 24.69 6.6 43.9 54 -2.2 28.1
09:10 1007 29.74 836 24.69 6.4 43.6 54 -2.1 28.3
09:15 1007 29.74 836 24.69 6.2 43.2 56 -2 28.4
09:20 1007 29.74 836 24.69 6.2 43.1 56 -2 28.3
09:25 1007 29.74 837 24.72 6.2 43.1 56 -1.9 28.6
09:30 1007 29.74 836 24.69 6 42.8 57 -1.9 28.5
09:35 1007 29.74 836 24.69 5.9 42.7 57 -2 28.4
09:40 1007 29.74 837 24.72 6.1 43.1 55 -2.3 27.9
09:45 1008 29.77 837 24.72 6.2 43.2 55 -2.1 28.3
09:50 1007 29.74 837 24.72 6.3 43.3 55 -2.1 28.2
09:55 1007 29.74 837 24.72 6.3 43.4 55 -2.1 28.3
10:00 1007 29.74 837 24.72 6.5 43.7 55 -2 28.4
10:05 1008 29.77 837 24.72 6.5 43.7 54 -2.1 28.3
10:10 1008 29.77 837 24.72 6.5 43.7 55 -2 28.5
10:15 1008 29.77 837 24.72 6.5 43.7 55 -1.9 28.5
10:20 1008 29.77 837 24.72 6.5 43.8 53 -2.3 27.9
10:25 1008 29.77 837 24.72 6.8 44.2 53 -2.2 28.1
10:30 1008 29.77 837 24.72 6.8 44.3 53 -2.1 28.3
10:35 1008 29.77 837 24.72 6.6 44 54 -2 28.4
10:40 1008 29.77 837 24.72 6.7 44 54 -2 28.4
10:45 1008 29.77 837 24.72 6.7 44.1 54 -2 28.5
10:50 1008 29.77 837 24.72 6.7 44 55 -1.8 28.8
10:55 1008 29.77 837 24.72 6.6 43.8 55 -1.7 28.9
11:00 1008 29.77 838 24.75 6.5 43.6 55 -1.8 28.8
11:05 1008 29.77 838 24.75 6.3 43.3 56 -1.8 28.8
11:10 1008 29.77 838 24.75 6.3 43.3 56 -1.8 28.8
11:15 1008 29.77 838 24.75 6.2 43.2 55 -2.1 28.2
11:20 1008 29.77 838 24.75 6.3 43.4 56 -1.8 28.7
11:25 1008 29.77 838 24.75 6.3 43.4 56 -1.8 28.7
11:30 1008 29.77 838 24.75 6.5 43.7 55 -1.9 28.5
11:35 1008 29.77 838 24.75 6.6 43.9 54 -2.1 28.2
11:40 1008 29.77 838 24.75 6.8 44.2 53 -2.1 28.2
11:45 1008 29.77 838 24.75 6.7 44.1 56 -1.5 29.3
11:50 1008 29.77 838 24.75 6.6 43.9 54 -2 28.3
11:55 1008 29.77 838 24.75 6.9 44.5 51 -2.4 27.7
12:00 1008 29.77 838 24.75 7.1 44.7 51 -2.3 27.9
12:05 1008 29.77 838 24.75 7 44.6 52 -2.2 28.1
12:10 1008 29.77 838 24.75 7.3 45.2 49 -2.6 27.3
12:15 1008 29.77 838 24.75 7.6 45.7 49 -2.5 27.6
12:20 1008 29.77 838 24.75 7.8 46 48 -2.5 27.6
12:25 1008 29.77 838 24.75 7.7 45.9 49 -2.3 27.9
12:30 1008 29.77 838 24.75 7.7 45.9 48 -2.5 27.6
12:35 1008 29.77 838 24.75 7.8 46 49 -2.3 27.9
12:40 1008 29.77 838 24.75 8 46.3 48 -2.5 27.6
12:45 1008 29.77 838 24.75 8 46.4 48 -2.3 27.8
12:50 1008 29.77 838 24.75 7.9 46.1 50 -1.9 28.6
12:55 1008 29.77 838 24.75 7.3 45.2 53 -1.7 28.9
13:00 1008 29.77 838 24.75 7.2 44.9 53 -1.7 28.9
13:05 1008 29.77 838 24.75 7.2 44.9 53 -1.8 28.7
13:10 1009 29.8 838 24.75 7.2 45 54 -1.6 29.2
13:15 1008 29.77 838 24.75 7 44.6 53 -2 28.4
13:20 1008 29.77 838 24.75 7.2 45 52 -1.9 28.6
13:25 1008 29.77 837 24.72 7.3 45.1 53 -1.8 28.8
13:30 1008 29.77 837 24.72 7 44.6 54 -1.6 29.1
13:35 1008 29.77 837 24.72 6.8 44.2 56 -1.4 29.5
13:40 1008 29.77 837 24.72 6.8 44.2 55 -1.5 29.3
13:45 1008 29.77 837 24.72 6.8 44.2 56 -1.5 29.3
13:50 1008 29.77 837 24.72 6.8 44.2 56 -1.5 29.3
13:55 1008 29.77 837 24.72 6.7 44.1 56 -1.5 29.4
14:00 1008 29.77 837 24.72 6.7 44.1 56 -1.4 29.4
14:05 1008 29.77 837 24.72 6.8 44.2 55 -1.6 29.1
14:10 1008 29.77 837 24.72 6.7 44 56 -1.4 29.4
14:15 1008 29.77 837 24.72 6.5 43.7 57 -1.4 29.4
14:20 1008 29.77 837 24.72 6.5 43.7 57 -1.5 29.3
14:25 1008 29.77 837 24.72 6.5 43.8 56 -1.5 29.2
14:30 1008 29.77 837 24.72 6.5 43.7 57 -1.5 29.3
14:35 1008 29.77 837 24.72 6.4 43.4 56 -1.7 28.9
14:40 1008 29.77 837 24.72 6.5 43.6 56 -1.6 29.1
14:45 1008 29.77 837 24.72 6.6 43.8 56 -1.6 29.1
14:50 1008 29.77 837 24.72 6.5 43.7 56 -1.6 29.1
14:55 1008 29.77 837 24.72 6.7 44 55 -1.6 29.1
15:00 1008 29.77 838 24.75 6.6 43.8 57 -1.4 29.5
15:05 1008 29.77 838 24.75 6.5 43.7 57 -1.5 29.4
15:10 1008 29.77 838 24.75 6.5 43.7 57 -1.5 29.3
15:15 1009 29.8 838 24.75 6.6 43.9 55 -1.7 28.9
15:20 1009 29.8 838 24.75 6.6 43.8 56 -1.5 29.3
15:25 1009 29.8 838 24.75 6.6 43.8 55 -1.8 28.7
15:30 1009 29.8 838 24.75 6.8 44.2 55 -1.6 29.2
15:35 1009 29.8 838 24.75 6.8 44.3 55 -1.6 29.1
15:40 1009 29.8 838 24.75 6.9 44.4 55 -1.6 29.2
15:45 1009 29.8 838 24.75 6.8 44.2 54 -1.7 28.9
15:50 1009 29.8 838 24.75 6.8 44.3 54 -1.7 28.9
15:55 1009 29.8 838 24.75 6.8 44.3 53 -2.2 28.1
16:00 1009 29.8 838 24.75 7.2 44.9 54 -1.6 29.1
16:05 1009 29.8 838 24.75 7.2 45 52 -1.9 28.5
16:10 1009 29.8 838 24.75 7.3 45.2 53 -1.6 29.1
16:15 1009 29.8 838 24.75 7.1 44.8 54 -1.6 29.2
16:20 1009 29.8 838 24.75 7 44.6 54 -1.6 29.1
16:25 1009 29.8 838 24.75 7 44.6 54 -1.6 29.1
16:30 1009 29.8 838 24.75 7 44.5 54 -1.7 28.9
16:35 1009 29.8 838 24.75 6.9 44.5 54 -1.7 28.9
16:40 1009 29.8 838 24.75 7.1 44.7 53 -1.9 28.6
16:45 1009 29.8 838 24.75 7.3 45.2 52 -2 28.4
16:50 1009 29.8 838 24.75 7.5 45.4 52 -1.8 28.8
16:55 1009 29.8 838 24.75 7.3 45.1 53 -1.7 29
17:00 1009 29.8 838 24.75 7.3 45.2 52 -2 28.5
17:05 1009 29.8 838 24.75 7.3 45.1 52 -1.8 28.7
17:10 1009 29.8 838 24.75 7.2 44.9 51 -2.2 28
17:15 1009 29.8 838 24.75 7.6 45.6 50 -2.2 28.1
17:20 1009 29.8 838 24.75 7.5 45.5 51 -1.9 28.7
17:25 1009 29.8 838 24.75 7.3 45.1 52 -2 28.4
17:30 1009 29.8 838 24.75 7.2 44.9 52 -1.9 28.5
17:35 1009 29.8 838 24.75 7 44.6 52 -2 28.3
17:40 1009 29.8 838 24.75 7.2 44.9 52 -2.1 28.2
17:45 1009 29.8 839 24.78 7.2 45 52 -2.1 28.2
17:50 1009 29.8 839 24.78 7.2 44.9 52 -2.1 28.2
17:55 1009 29.8 839 24.78 7.1 44.8 53 -1.8 28.7
18:00 1010 29.83 839 24.78 7 44.5 53 -2.1 28.3
18:05 1010 29.83 839 24.78 7.1 44.8 53 -1.9 28.7
18:10 1010 29.83 839 24.78 7 44.6 52 -2.1 28.3
18:15 1010 29.83 839 24.78 7 44.6 53 -2 28.4
18:20 1010 29.83 839 24.78 6.9 44.4 53 -1.9 28.5
18:25 1010 29.83 839 24.78 6.8 44.2 54 -1.8 28.8
18:30 1010 29.83 839 24.78 6.6 44 55 -1.8 28.7
18:35 1010 29.83 839 24.78 7 44.5 52 -2.1 28.2
18:40 1010 29.83 839 24.78 7 44.5 55 -1.5 29.3
18:45 1010 29.83 839 24.78 6.8 44.3 53 -2.1 28.3
18:50 1010 29.83 839 24.78 6.9 44.4 53 -1.9 28.5
18:55 1010 29.83 839 24.78 6.9 44.5 53 -2 28.4
19:00 1010 29.83 839 24.78 7.3 45.1 50 -2.4 27.6
19:05 1010 29.83 839 24.78 7.6 45.8 50 -2.2 28.1
19:10 1010 29.83 839 24.78 7.6 45.7 50 -2.2 28
19:15 1010 29.83 839 24.78 7.6 45.7 50 -2 28.3
19:20 1010 29.83 839 24.78 7.6 45.7 49 -2.4 27.8
19:25 1010 29.83 839 24.78 7.7 45.9 50 -2 28.4
19:30 1010 29.83 839 24.78 7.6 45.7 50 -2.2 28.1
19:35 1010 29.83 839 24.78 7.7 45.8 50 -2 28.4
19:40 1010 29.83 839 24.78 7.5 45.5 51 -1.9 28.6
19:45 1010 29.83 839 24.78 7.4 45.3 50 -2.3 27.8
19:50 1010 29.83 839 24.78 7.6 45.7 50 -2.2 28
19:55 1010 29.83 839 24.78 7.6 45.7 50 -2 28.4
20:00 1010 29.83 839 24.78 7.5 45.4 51 -2.1 28.2
20:05 1010 29.83 839 24.78 7.4 45.4 51 -2.2 28.1
20:10 1010 29.83 839 24.78 7.6 45.6 49 -2.5 27.6
20:15 1010 29.83 839 24.78 7.9 46.1 48 -2.5 27.5
20:20 1010 29.83 839 24.78 7.8 46 50 -2.1 28.3
20:25 1010 29.83 839 24.78 7.6 45.7 50 -2.1 28.1
20:30 1010 29.83 840 24.81 7.5 45.5 50 -2.1 28.1
20:35 1010 29.83 839 24.78 7.4 45.3 51 -2.2 28.1
20:40 1010 29.83 839 24.78 7.5 45.4 50 -2.3 27.9
20:45 1010 29.83 839 24.78 7.6 45.6 50 -2.2 28
20:50 1010 29.83 839 24.78 7.6 45.6 49 -2.3 27.8
20:55 1010 29.83 839 24.78 7.7 45.9 49 -2.4 27.7
21:00 1010 29.83 839 24.78 7.8 46.1 49 -2.2 28
21:05 1010 29.83 839 24.78 7.8 46 49 -2.2 28
21:10 1010 29.83 839 24.78 7.6 45.6 51 -1.9 28.5
21:15 1010 29.83 839 24.78 7.2 45 51 -2.2 28.1
21:20 1010 29.83 839 24.78 7.4 45.3 50 -2.4 27.6
21:25 1010 29.83 839 24.78 7.5 45.6 51 -2 28.4
21:30 1010 29.83 839 24.78 7.3 45.2 51 -2 28.4
21:35 1010 29.83 839 24.78 7.2 44.9 51 -2.2 28
21:40 1010 29.83 839 24.78 7.3 45.1 52 -2 28.5
21:45 1010 29.83 839 24.78 7.2 44.9 52 -2.1 28.2
21:50 1010 29.83 839 24.78 7.2 44.9 52 -2.1 28.3
21:55 1010 29.83 839 24.78 7.5 45.5 50 -2.3 27.9
22:00 1010 29.83 839 24.78 7.6 45.7 50 -2 28.4
22:05 1010 29.83 839 24.78 7.6 45.8 49 -2.3 27.8
22:10 1010 29.83 839 24.78 7.7 45.9 49 -2.3 27.9
22:15 1010 29.83 839 24.78 7.6 45.6 51 -2 28.4
22:20 1010 29.83 839 24.78 7.4 45.3 52 -1.9 28.7
22:25 1010 29.83 839 24.78 7.3 45.2 51 -2.2 28.1
22:30 1010 29.83 839 24.78 7.6 45.6 51 -1.9 28.6
22:35 1010 29.83 839 24.78 7.4 45.3 52 -1.9 28.6
22:40 1010 29.83 839 24.78 7.3 45.2 52 -2 28.5
22:45 1010 29.83 839 24.78 7.4 45.2 52 -1.9 28.6
22:50 1010 29.83 839 24.78 7.5 45.5 51 -1.9 28.5
22:55 1010 29.83 839 24.78 7.5 45.4 52 -1.7 29
23:00 1010 29.83 839 24.78 7.3 45.2 53 -1.7 28.9
23:05 1010 29.83 839 24.78 7.3 45.1 52 -1.9 28.6
23:10 1010 29.83 839 24.78 7.3 45.1 52 -1.9 28.6
23:15 1010 29.83 839 24.78 7.3 45.2 53 -1.6 29.2
23:20 1010 29.83 839 24.78 7 44.6 54 -1.6 29.1
23:25 1010 29.83 839 24.78 7 44.5 54 -1.8 28.8
23:30 1010 29.83 839 24.78 7.2 44.9 52 -2 28.4
23:35 1010 29.83 839 24.78 7.7 45.8 49 -2.3 27.8
23:40 1010 29.83 839 24.78 8 46.4 50 -1.8 28.8
23:45 1010 29.83 839 24.78 7.7 45.8 51 -1.7 28.9
23:50 1010 29.83 839 24.78 7.6 45.6 51 -2 28.5
23:55 1010 29.83 839 24.78 7.5 45.5 52 -1.7 28.9
24:00 1010 29.83 839 24.78 7.4 45.4 52 -1.8 28.7